sensor_id;sensor_type;location;lat;lon;timestamp;temperature;humidity
17170;DHT22;8700;48.222;16.342;2022-09-13T00:01:44;17.40;99.90
17170;DHT22;8700;48.222;16.342;2022-09-13T00:05:08;17.40;99.90
17170;DHT22;8700;48.222;16.342;2022-09-13T00:08:29;17.30;99.90
17170;DHT22;8700;48.222;16.342;2022-09-13T00:11:51;17.30;99.90
17170;DHT22;8700;48.222;16.342;2022-09-13T00:15:12;17.20;99.90
17170;DHT22;8700;48.222;16.342;2022-09-13T00:18:34;17.10;99.90
17170;DHT22;8700;48.222;16.342;2022-09-13T00:21:57;17.00;99.90
17170;DHT22;8700;48.222;16.342;2022-09-13T00:25:18;17.00;99.90
17170;DHT22;8700;48.222;16.342;2022-09-13T00:28:40;16.90;99.90
17170;DHT22;8700;48.222;16.342;2022-09-13T00:32:01;16.90;99.90
17170;DHT22;8700;48.222;16.342;2022-09-13T00:35:23;16.80;99.90
17170;DHT22;8700;48.222;16.342;2022-09-13T00:38:45;16.80;99.90
17170;DHT22;8700;48.222;16.342;2022-09-13T00:42:09;16.60;99.90
17170;DHT22;8700;48.222;16.342;2022-09-13T00:45:32;16.60;99.90
17170;DHT22;8700;48.222;16.342;2022-09-13T00:48:58;16.50;99.90
17170;DHT22;8700;48.222;16.342;2022-09-13T00:52:23;16.40;99.90
17170;DHT22;8700;48.222;16.342;2022-09-13T00:55:52;16.30;99.90
17170;DHT22;8700;48.222;16.342;2022-09-13T00:59:20;16.20;99.90
17170;DHT22;8700;48.222;16.342;2022-09-13T01:02:44;16.30;99.90
17170;DHT22;8700;48.222;16.342;2022-09-13T01:06:10;16.20;99.90
17170;DHT22;8700;48.222;16.342;2022-09-13T01:09:35;16.10;99.90
17170;DHT22;8700;48.222;16.342;2022-09-13T01:13:03;16.10;99.90
17170;DHT22;8700;48.222;16.342;2022-09-13T01:16:32;16.20;99.90
17170;DHT22;8700;48.222;16.342;2022-09-13T01:19:53;16.20;99.90
17170;DHT22;8700;48.222;16.342;2022-09-13T01:23:39;16.30;99.90
17170;DHT22;8700;48.222;16.342;2022-09-13T01:27:18;16.40;99.90
17170;DHT22;8700;48.222;16.342;2022-09-13T01:30:47;16.30;99.90
17170;DHT22;8700;48.222;16.342;2022-09-13T01:34:21;16.00;99.90
17170;DHT22;8700;48.222;16.342;2022-09-13T01:37:51;15.80;99.90
17170;DHT22;8700;48.222;16.342;2022-09-13T01:45:12;16.00;99.90
17170;DHT22;8700;48.222;16.342;2022-09-13T01:48:52;16.00;99.90
17170;DHT22;8700;48.222;16.342;2022-09-13T01:52:21;16.10;99.90
17170;DHT22;8700;48.222;16.342;2022-09-13T01:55:47;16.10;99.90
17170;DHT22;8700;48.222;16.342;2022-09-13T01:59:15;16.10;99.90
17170;DHT22;8700;48.222;16.342;2022-09-13T02:02:42;16.00;99.90
17170;DHT22;8700;48.222;16.342;2022-09-13T02:06:10;16.00;99.90
17170;DHT22;8700;48.222;16.342;2022-09-13T02:09:36;16.00;99.90
17170;DHT22;8700;48.222;16.342;2022-09-13T02:13:01;15.90;99.90
17170;DHT22;8700;48.222;16.342;2022-09-13T02:16:27;15.90;99.90
17170;DHT22;8700;48.222;16.342;2022-09-13T02:19:54;15.80;99.90
17170;DHT22;8700;48.222;16.342;2022-09-13T02:23:21;15.70;99.90
17170;DHT22;8700;48.222;16.342;2022-09-13T02:26:46;15.80;99.90
17170;DHT22;8700;48.222;16.342;2022-09-13T02:30:12;15.80;99.90
17170;DHT22;8700;48.222;16.342;2022-09-13T02:33:36;15.80;99.90
17170;DHT22;8700;48.222;16.342;2022-09-13T02:37:00;15.80;99.90
17170;DHT22;8700;48.222;16.342;2022-09-13T02:40:27;15.90;99.90
17170;DHT22;8700;48.222;16.342;2022-09-13T02:43:52;16.00;99.90
17170;DHT22;8700;48.222;16.342;2022-09-13T02:51:16;15.90;99.90
17170;DHT22;8700;48.222;16.342;2022-09-13T02:54:45;15.80;99.90
17170;DHT22;8700;48.222;16.342;2022-09-13T02:58:19;15.50;99.90
17170;DHT22;8700;48.222;16.342;2022-09-13T03:01:46;15.40;99.90
17170;DHT22;8700;48.222;16.342;2022-09-13T03:05:08;15.40;99.90
17170;DHT22;8700;48.222;16.342;2022-09-13T03:08:30;15.50;99.90
17170;DHT22;8700;48.222;16.342;2022-09-13T03:12:03;15.50;99.90
17170;DHT22;8700;48.222;16.342;2022-09-13T03:15:40;15.40;99.90
17170;DHT22;8700;48.222;16.342;2022-09-13T03:19:26;15.40;99.90
17170;DHT22;8700;48.222;16.342;2022-09-13T03:23:15;15.40;99.90
17170;DHT22;8700;48.222;16.342;2022-09-13T03:26:45;15.40;99.90
17170;DHT22;8700;48.222;16.342;2022-09-13T03:30:13;15.40;99.90
17170;DHT22;8700;48.222;16.342;2022-09-13T03:33:43;15.30;99.90
17170;DHT22;8700;48.222;16.342;2022-09-13T03:37:10;15.40;99.90
17170;DHT22;8700;48.222;16.342;2022-09-13T03:40:38;15.50;99.90
17170;DHT22;8700;48.222;16.342;2022-09-13T03:44:02;15.50;99.90
17170;DHT22;8700;48.222;16.342;2022-09-13T03:47:27;15.60;99.90
17170;DHT22;8700;48.222;16.342;2022-09-13T03:50:53;15.60;99.90
17170;DHT22;8700;48.222;16.342;2022-09-13T03:54:17;15.50;99.90
17170;DHT22;8700;48.222;16.342;2022-09-13T03:57:39;15.50;99.90
17170;DHT22;8700;48.222;16.342;2022-09-13T04:01:00;15.40;99.90
17170;DHT22;8700;48.222;16.342;2022-09-13T04:04:22;15.30;99.90
17170;DHT22;8700;48.222;16.342;2022-09-13T04:07:45;15.40;99.90
17170;DHT22;8700;48.222;16.342;2022-09-13T04:11:06;15.40;99.90
17170;DHT22;8700;48.222;16.342;2022-09-13T04:14:28;15.40;99.90
17170;DHT22;8700;48.222;16.342;2022-09-13T04:17:49;15.30;99.90
17170;DHT22;8700;48.222;16.342;2022-09-13T04:21:11;15.20;99.90
17170;DHT22;8700;48.222;16.342;2022-09-13T04:24:34;15.30;99.90
17170;DHT22;8700;48.222;16.342;2022-09-13T04:27:59;15.40;99.90
17170;DHT22;8700;48.222;16.342;2022-09-13T04:31:20;15.40;99.90
17170;DHT22;8700;48.222;16.342;2022-09-13T04:34:42;15.40;99.90
17170;DHT22;8700;48.222;16.342;2022-09-13T04:38:04;15.50;99.90
17170;DHT22;8700;48.222;16.342;2022-09-13T04:41:27;15.30;99.90
17170;DHT22;8700;48.222;16.342;2022-09-13T04:44:49;15.30;99.90
17170;DHT22;8700;48.222;16.342;2022-09-13T04:48:12;15.30;99.90
17170;DHT22;8700;48.222;16.342;2022-09-13T04:51:34;15.30;99.90
17170;DHT22;8700;48.222;16.342;2022-09-13T04:54:56;15.40;99.90
17170;DHT22;8700;48.222;16.342;2022-09-13T04:58:21;15.40;99.90
17170;DHT22;8700;48.222;16.342;2022-09-13T05:01:44;15.30;99.90
17170;DHT22;8700;48.222;16.342;2022-09-13T05:05:05;15.40;99.90
17170;DHT22;8700;48.222;16.342;2022-09-13T05:08:27;15.40;99.90
17170;DHT22;8700;48.222;16.342;2022-09-13T05:11:49;15.40;99.90
17170;DHT22;8700;48.222;16.342;2022-09-13T05:15:12;15.40;99.90
17170;DHT22;8700;48.222;16.342;2022-09-13T05:18:35;15.30;99.90
17170;DHT22;8700;48.222;16.342;2022-09-13T05:21:56;15.30;99.90
17170;DHT22;8700;48.222;16.342;2022-09-13T05:25:18;15.30;99.90
17170;DHT22;8700;48.222;16.342;2022-09-13T05:28:39;15.30;99.90
17170;DHT22;8700;48.222;16.342;2022-09-13T05:32:02;15.40;99.90
17170;DHT22;8700;48.222;16.342;2022-09-13T05:35:24;15.40;99.90
17170;DHT22;8700;48.222;16.342;2022-09-13T05:38:45;15.50;99.90
17170;DHT22;8700;48.222;16.342;2022-09-13T05:42:07;15.60;99.90
17170;DHT22;8700;48.222;16.342;2022-09-13T05:45:28;15.70;99.90
17170;DHT22;8700;48.222;16.342;2022-09-13T05:48:51;15.80;99.90
17170;DHT22;8700;48.222;16.342;2022-09-13T05:52:12;15.80;99.90
17170;DHT22;8700;48.222;16.342;2022-09-13T05:55:35;15.80;99.90
17170;DHT22;8700;48.222;16.342;2022-09-13T05:58:56;15.90;99.90
17170;DHT22;8700;48.222;16.342;2022-09-13T06:02:20;16.00;99.90
17170;DHT22;8700;48.222;16.342;2022-09-13T06:05:47;16.10;99.90
17170;DHT22;8700;48.222;16.342;2022-09-13T06:09:09;16.20;99.90
17170;DHT22;8700;48.222;16.342;2022-09-13T06:12:31;16.30;99.90
17170;DHT22;8700;48.222;16.342;2022-09-13T06:15:54;16.30;99.90
17170;DHT22;8700;48.222;16.342;2022-09-13T06:19:16;16.50;99.90
17170;DHT22;8700;48.222;16.342;2022-09-13T06:22:39;16.60;99.90
17170;DHT22;8700;48.222;16.342;2022-09-13T06:26:01;16.60;99.90
17170;DHT22;8700;48.222;16.342;2022-09-13T06:29:23;16.50;99.90
17170;DHT22;8700;48.222;16.342;2022-09-13T06:32:44;16.60;99.90
17170;DHT22;8700;48.222;16.342;2022-09-13T06:36:08;16.80;99.90
17170;DHT22;8700;48.222;16.342;2022-09-13T06:39:31;17.10;99.90
17170;DHT22;8700;48.222;16.342;2022-09-13T06:42:53;17.40;99.90
17170;DHT22;8700;48.222;16.342;2022-09-13T06:46:17;17.60;99.90
17170;DHT22;8700;48.222;16.342;2022-09-13T06:49:39;17.80;99.90
17170;DHT22;8700;48.222;16.342;2022-09-13T06:53:00;17.80;99.90
17170;DHT22;8700;48.222;16.342;2022-09-13T06:56:25;18.00;99.90
17170;DHT22;8700;48.222;16.342;2022-09-13T06:59:47;17.90;99.90
17170;DHT22;8700;48.222;16.342;2022-09-13T07:03:08;17.60;99.90
17170;DHT22;8700;48.222;16.342;2022-09-13T07:06:31;17.60;99.90
17170;DHT22;8700;48.222;16.342;2022-09-13T07:09:53;17.60;99.90
17170;DHT22;8700;48.222;16.342;2022-09-13T07:13:16;17.60;99.90
17170;DHT22;8700;48.222;16.342;2022-09-13T07:16:38;17.60;99.90
17170;DHT22;8700;48.222;16.342;2022-09-13T07:20:00;17.70;99.90
17170;DHT22;8700;48.222;16.342;2022-09-13T07:23:21;18.00;99.90
17170;DHT22;8700;48.222;16.342;2022-09-13T07:26:44;18.10;99.90
17170;DHT22;8700;48.222;16.342;2022-09-13T07:30:08;18.40;99.90
17170;DHT22;8700;48.222;16.342;2022-09-13T07:33:30;18.50;99.90
17170;DHT22;8700;48.222;16.342;2022-09-13T07:36:52;18.40;99.90
17170;DHT22;8700;48.222;16.342;2022-09-13T07:40:15;18.40;99.90
17170;DHT22;8700;48.222;16.342;2022-09-13T07:43:38;18.40;99.90
17170;DHT22;8700;48.222;16.342;2022-09-13T07:47:00;18.50;99.90
17170;DHT22;8700;48.222;16.342;2022-09-13T07:50:22;18.40;99.90
17170;DHT22;8700;48.222;16.342;2022-09-13T07:53:44;18.70;99.90
17170;DHT22;8700;48.222;16.342;2022-09-13T07:57:06;18.90;99.90
17170;DHT22;8700;48.222;16.342;2022-09-13T08:00:27;19.00;99.90
17170;DHT22;8700;48.222;16.342;2022-09-13T08:03:54;19.30;99.90
17170;DHT22;8700;48.222;16.342;2022-09-13T08:07:16;19.20;99.90
17170;DHT22;8700;48.222;16.342;2022-09-13T08:10:38;19.40;99.90
17170;DHT22;8700;48.222;16.342;2022-09-13T08:13:59;19.40;99.90
17170;DHT22;8700;48.222;16.342;2022-09-13T08:17:21;19.30;99.90
17170;DHT22;8700;48.222;16.342;2022-09-13T08:20:44;19.20;99.90
17170;DHT22;8700;48.222;16.342;2022-09-13T08:24:13;19.30;99.90
17170;DHT22;8700;48.222;16.342;2022-09-13T08:27:34;19.70;99.90
17170;DHT22;8700;48.222;16.342;2022-09-13T08:31:01;19.50;99.90
17170;DHT22;8700;48.222;16.342;2022-09-13T08:34:23;19.30;99.90
17170;DHT22;8700;48.222;16.342;2022-09-13T08:37:46;19.50;99.90
17170;DHT22;8700;48.222;16.342;2022-09-13T08:41:25;19.70;99.90
17170;DHT22;8700;48.222;16.342;2022-09-13T08:44:52;19.50;99.90
17170;DHT22;8700;48.222;16.342;2022-09-13T08:48:17;19.90;99.90
17170;DHT22;8700;48.222;16.342;2022-09-13T08:51:41;20.60;99.90
17170;DHT22;8700;48.222;16.342;2022-09-13T08:55:26;21.00;99.90
17170;DHT22;8700;48.222;16.342;2022-09-13T08:59:23;22.00;99.90
17170;DHT22;8700;48.222;16.342;2022-09-13T09:02:55;22.60;99.90
17170;DHT22;8700;48.222;16.342;2022-09-13T09:06:19;22.70;99.90
17170;DHT22;8700;48.222;16.342;2022-09-13T09:09:45;23.80;99.90
17170;DHT22;8700;48.222;16.342;2022-09-13T09:13:17;25.00;99.90
17170;DHT22;8700;48.222;16.342;2022-09-13T09:16:44;26.10;99.90
17170;DHT22;8700;48.222;16.342;2022-09-13T09:20:18;26.40;98.70
17170;DHT22;8700;48.222;16.342;2022-09-13T09:23:49;27.80;96.80
17170;DHT22;8700;48.222;16.342;2022-09-13T09:27:15;26.90;95.40
17170;DHT22;8700;48.222;16.342;2022-09-13T09:30:45;26.60;95.60
17170;DHT22;8700;48.222;16.342;2022-09-13T09:34:17;26.60;94.80
17170;DHT22;8700;48.222;16.342;2022-09-13T09:37:49;27.20;94.20
17170;DHT22;8700;48.222;16.342;2022-09-13T09:41:24;28.10;93.70
17170;DHT22;8700;48.222;16.342;2022-09-13T09:44:49;28.50;91.40
17170;DHT22;8700;48.222;16.342;2022-09-13T09:48:15;28.10;91.30
17170;DHT22;8700;48.222;16.342;2022-09-13T09:51:40;28.80;90.30
17170;DHT22;8700;48.222;16.342;2022-09-13T09:55:14;29.70;87.40
17170;DHT22;8700;48.222;16.342;2022-09-13T09:58:41;30.00;85.80
17170;DHT22;8700;48.222;16.342;2022-09-13T10:02:14;28.40;86.40
17170;DHT22;8700;48.222;16.342;2022-09-13T10:05:39;28.90;86.20
17170;DHT22;8700;48.222;16.342;2022-09-13T10:09:04;29.10;85.10
17170;DHT22;8700;48.222;16.342;2022-09-13T10:12:28;29.40;83.90
17170;DHT22;8700;48.222;16.342;2022-09-13T10:16:24;29.90;82.50
17170;DHT22;8700;48.222;16.342;2022-09-13T10:19:54;30.10;82.00
17170;DHT22;8700;48.222;16.342;2022-09-13T10:23:20;30.10;80.30
17170;DHT22;8700;48.222;16.342;2022-09-13T10:26:42;29.70;80.00
17170;DHT22;8700;48.222;16.342;2022-09-13T10:30:05;29.90;80.40
17170;DHT22;8700;48.222;16.342;2022-09-13T10:33:29;29.00;81.00
17170;DHT22;8700;48.222;16.342;2022-09-13T10:36:55;29.80;79.40
17170;DHT22;8700;48.222;16.342;2022-09-13T10:40:27;30.20;78.70
17170;DHT22;8700;48.222;16.342;2022-09-13T10:43:56;30.00;78.40
17170;DHT22;8700;48.222;16.342;2022-09-13T10:47:20;30.50;76.00
17170;DHT22;8700;48.222;16.342;2022-09-13T10:51:01;30.40;77.40
17170;DHT22;8700;48.222;16.342;2022-09-13T10:54:23;31.00;75.80
17170;DHT22;8700;48.222;16.342;2022-09-13T10:57:47;31.70;74.70
17170;DHT22;8700;48.222;16.342;2022-09-13T11:01:38;31.30;73.70
17170;DHT22;8700;48.222;16.342;2022-09-13T11:05:14;31.00;73.60
17170;DHT22;8700;48.222;16.342;2022-09-13T11:08:44;30.60;73.60
17170;DHT22;8700;48.222;16.342;2022-09-13T11:12:13;31.60;72.20
17170;DHT22;8700;48.222;16.342;2022-09-13T11:15:48;31.00;72.50
17170;DHT22;8700;48.222;16.342;2022-09-13T11:23:30;32.00;70.60
17170;DHT22;8700;48.222;16.342;2022-09-13T11:27:01;32.10;68.90
17170;DHT22;8700;48.222;16.342;2022-09-13T11:30:24;31.20;70.10
17170;DHT22;8700;48.222;16.342;2022-09-13T11:33:59;31.30;70.30
17170;DHT22;8700;48.222;16.342;2022-09-13T11:37:35;31.50;69.70
17170;DHT22;8700;48.222;16.342;2022-09-13T11:41:01;31.10;69.70
17170;DHT22;8700;48.222;16.342;2022-09-13T11:44:35;30.90;69.60
17170;DHT22;8700;48.222;16.342;2022-09-13T11:52:08;30.40;71.00
17170;DHT22;8700;48.222;16.342;2022-09-13T11:55:38;29.50;71.90
17170;DHT22;8700;48.222;16.342;2022-09-13T11:59:11;28.80;73.50
17170;DHT22;8700;48.222;16.342;2022-09-13T12:02:39;28.80;73.30
17170;DHT22;8700;48.222;16.342;2022-09-13T12:06:06;28.50;74.20
17170;DHT22;8700;48.222;16.342;2022-09-13T12:09:35;28.40;74.10
17170;DHT22;8700;48.222;16.342;2022-09-13T12:13:01;28.10;74.40
17170;DHT22;8700;48.222;16.342;2022-09-13T12:16:27;27.70;75.70
17170;DHT22;8700;48.222;16.342;2022-09-13T12:19:52;27.50;76.70
17170;DHT22;8700;48.222;16.342;2022-09-13T12:23:19;27.40;77.00
17170;DHT22;8700;48.222;16.342;2022-09-13T12:26:49;27.10;77.40
17170;DHT22;8700;48.222;16.342;2022-09-13T12:30:15;26.70;78.30
17170;DHT22;8700;48.222;16.342;2022-09-13T12:33:38;26.60;78.60
17170;DHT22;8700;48.222;16.342;2022-09-13T12:37:08;26.20;79.40
17170;DHT22;8700;48.222;16.342;2022-09-13T12:40:41;26.10;80.30
17170;DHT22;8700;48.222;16.342;2022-09-13T12:48:20;26.10;80.40
17170;DHT22;8700;48.222;16.342;2022-09-13T12:51:56;26.10;81.30
17170;DHT22;8700;48.222;16.342;2022-09-13T12:55:47;26.20;81.60
17170;DHT22;8700;48.222;16.342;2022-09-13T12:59:41;26.50;80.60
17170;DHT22;8700;48.222;16.342;2022-09-13T13:03:17;26.70;80.40
17170;DHT22;8700;48.222;16.342;2022-09-13T13:06:47;26.80;79.90
17170;DHT22;8700;48.222;16.342;2022-09-13T13:10:23;26.80;80.10
17170;DHT22;8700;48.222;16.342;2022-09-13T13:13:53;26.80;79.50
17170;DHT22;8700;48.222;16.342;2022-09-13T13:17:42;26.60;79.50
17170;DHT22;8700;48.222;16.342;2022-09-13T13:21:28;27.20;79.30
17170;DHT22;8700;48.222;16.342;2022-09-13T13:24:50;27.30;78.70
17170;DHT22;8700;48.222;16.342;2022-09-13T13:32:11;27.20;78.40
17170;DHT22;8700;48.222;16.342;2022-09-13T13:35:33;27.80;78.00
17170;DHT22;8700;48.222;16.342;2022-09-13T13:38:57;28.00;72.50
17170;DHT22;8700;48.222;16.342;2022-09-13T13:42:25;27.80;70.00
17170;DHT22;8700;48.222;16.342;2022-09-13T13:49:42;28.60;69.50
17170;DHT22;8700;48.222;16.342;2022-09-13T13:53:21;28.50;71.60
17170;DHT22;8700;48.222;16.342;2022-09-13T13:56:47;28.00;75.20
17170;DHT22;8700;48.222;16.342;2022-09-13T14:00:13;27.70;76.00
17170;DHT22;8700;48.222;16.342;2022-09-13T14:03:48;27.60;74.30
17170;DHT22;8700;48.222;16.342;2022-09-13T14:11:16;27.70;74.20
17170;DHT22;8700;48.222;16.342;2022-09-13T14:19:00;27.80;74.80
17170;DHT22;8700;48.222;16.342;2022-09-13T14:22:26;27.60;76.00
17170;DHT22;8700;48.222;16.342;2022-09-13T14:25:53;27.50;76.60
17170;DHT22;8700;48.222;16.342;2022-09-13T14:29:16;27.20;76.50
17170;DHT22;8700;48.222;16.342;2022-09-13T14:32:41;27.00;77.10
17170;DHT22;8700;48.222;16.342;2022-09-13T14:36:06;27.00;77.30
17170;DHT22;8700;48.222;16.342;2022-09-13T14:39:29;26.90;77.30
17170;DHT22;8700;48.222;16.342;2022-09-13T14:42:50;26.80;77.60
17170;DHT22;8700;48.222;16.342;2022-09-13T14:46:18;26.80;78.30
17170;DHT22;8700;48.222;16.342;2022-09-13T14:49:43;26.80;78.70
17170;DHT22;8700;48.222;16.342;2022-09-13T14:53:14;27.00;77.90
17170;DHT22;8700;48.222;16.342;2022-09-13T14:56:41;27.00;77.80
17170;DHT22;8700;48.222;16.342;2022-09-13T15:00:13;27.10;77.20
17170;DHT22;8700;48.222;16.342;2022-09-13T15:03:36;27.10;77.20
17170;DHT22;8700;48.222;16.342;2022-09-13T15:07:08;26.80;77.90
17170;DHT22;8700;48.222;16.342;2022-09-13T15:10:33;26.60;77.70
17170;DHT22;8700;48.222;16.342;2022-09-13T15:14:23;26.60;78.00
17170;DHT22;8700;48.222;16.342;2022-09-13T15:17:52;26.50;78.60
17170;DHT22;8700;48.222;16.342;2022-09-13T15:21:16;26.40;78.70
17170;DHT22;8700;48.222;16.342;2022-09-13T15:24:42;26.30;79.50
17170;DHT22;8700;48.222;16.342;2022-09-13T15:28:21;26.40;79.20
17170;DHT22;8700;48.222;16.342;2022-09-13T15:31:42;26.10;80.20
17170;DHT22;8700;48.222;16.342;2022-09-13T15:35:16;26.00;81.00
17170;DHT22;8700;48.222;16.342;2022-09-13T15:38:55;25.90;82.00
17170;DHT22;8700;48.222;16.342;2022-09-13T15:42:18;25.60;83.30
17170;DHT22;8700;48.222;16.342;2022-09-13T15:45:41;25.50;83.20
17170;DHT22;8700;48.222;16.342;2022-09-13T15:49:04;25.10;83.80
17170;DHT22;8700;48.222;16.342;2022-09-13T15:52:25;25.00;84.50
17170;DHT22;8700;48.222;16.342;2022-09-13T15:55:48;24.90;85.50
17170;DHT22;8700;48.222;16.342;2022-09-13T15:59:12;24.90;85.40
17170;DHT22;8700;48.222;16.342;2022-09-13T16:02:35;24.80;85.90
17170;DHT22;8700;48.222;16.342;2022-09-13T16:05:57;24.80;86.40
17170;DHT22;8700;48.222;16.342;2022-09-13T16:09:20;24.80;86.30
17170;DHT22;8700;48.222;16.342;2022-09-13T16:12:42;24.90;86.30
17170;DHT22;8700;48.222;16.342;2022-09-13T16:16:04;24.90;86.10
17170;DHT22;8700;48.222;16.342;2022-09-13T16:19:27;24.60;87.00
17170;DHT22;8700;48.222;16.342;2022-09-13T16:22:48;24.50;87.90
17170;DHT22;8700;48.222;16.342;2022-09-13T16:26:09;24.50;87.90
17170;DHT22;8700;48.222;16.342;2022-09-13T16:29:31;24.50;87.30
17170;DHT22;8700;48.222;16.342;2022-09-13T16:32:53;24.40;86.80
17170;DHT22;8700;48.222;16.342;2022-09-13T16:36:16;24.50;87.40
17170;DHT22;8700;48.222;16.342;2022-09-13T16:39:37;24.50;87.50
17170;DHT22;8700;48.222;16.342;2022-09-13T16:42:59;24.40;87.40
17170;DHT22;8700;48.222;16.342;2022-09-13T16:46:20;24.30;87.70
17170;DHT22;8700;48.222;16.342;2022-09-13T16:49:42;24.40;87.10
17170;DHT22;8700;48.222;16.342;2022-09-13T16:53:09;24.40;87.30
17170;DHT22;8700;48.222;16.342;2022-09-13T16:56:31;24.40;87.20
17170;DHT22;8700;48.222;16.342;2022-09-13T16:59:52;24.40;87.90
17170;DHT22;8700;48.222;16.342;2022-09-13T17:03:17;24.30;87.10
17170;DHT22;8700;48.222;16.342;2022-09-13T17:06:39;24.30;87.00
17170;DHT22;8700;48.222;16.342;2022-09-13T17:10:03;24.20;87.30
17170;DHT22;8700;48.222;16.342;2022-09-13T17:13:25;24.10;88.50
17170;DHT22;8700;48.222;16.342;2022-09-13T17:16:49;24.20;87.50
17170;DHT22;8700;48.222;16.342;2022-09-13T17:20:12;24.10;87.70
17170;DHT22;8700;48.222;16.342;2022-09-13T17:23:33;24.10;88.20
17170;DHT22;8700;48.222;16.342;2022-09-13T17:26:57;24.20;88.40
17170;DHT22;8700;48.222;16.342;2022-09-13T17:30:19;24.20;89.20
17170;DHT22;8700;48.222;16.342;2022-09-13T17:33:40;24.10;89.10
17170;DHT22;8700;48.222;16.342;2022-09-13T17:37:02;24.10;89.40
17170;DHT22;8700;48.222;16.342;2022-09-13T17:40:25;24.10;89.70
17170;DHT22;8700;48.222;16.342;2022-09-13T17:43:49;24.00;90.10
17170;DHT22;8700;48.222;16.342;2022-09-13T17:47:10;24.00;90.30
17170;DHT22;8700;48.222;16.342;2022-09-13T17:50:32;23.90;90.60
17170;DHT22;8700;48.222;16.342;2022-09-13T17:53:55;23.70;90.90
17170;DHT22;8700;48.222;16.342;2022-09-13T17:57:17;23.60;91.20
17170;DHT22;8700;48.222;16.342;2022-09-13T18:00:41;23.50;91.40
17170;DHT22;8700;48.222;16.342;2022-09-13T18:04:02;23.60;91.70
17170;DHT22;8700;48.222;16.342;2022-09-13T18:07:24;23.60;91.90
17170;DHT22;8700;48.222;16.342;2022-09-13T18:10:45;23.80;91.80
17170;DHT22;8700;48.222;16.342;2022-09-13T18:14:10;24.00;91.60
17170;DHT22;8700;48.222;16.342;2022-09-13T18:17:33;24.00;91.80
17170;DHT22;8700;48.222;16.342;2022-09-13T18:20:55;23.90;92.10
17170;DHT22;8700;48.222;16.342;2022-09-13T18:24:17;23.70;92.40
17170;DHT22;8700;48.222;16.342;2022-09-13T18:27:38;23.70;92.70
17170;DHT22;8700;48.222;16.342;2022-09-13T18:31:01;23.60;93.10
17170;DHT22;8700;48.222;16.342;2022-09-13T18:34:26;23.50;93.30
17170;DHT22;8700;48.222;16.342;2022-09-13T18:37:49;23.50;93.70
17170;DHT22;8700;48.222;16.342;2022-09-13T18:41:12;23.40;94.00
17170;DHT22;8700;48.222;16.342;2022-09-13T18:44:34;23.40;94.30
17170;DHT22;8700;48.222;16.342;2022-09-13T18:47:56;23.40;94.10
17170;DHT22;8700;48.222;16.342;2022-09-13T18:51:20;23.50;94.40
17170;DHT22;8700;48.222;16.342;2022-09-13T18:54:43;23.50;94.50
17170;DHT22;8700;48.222;16.342;2022-09-13T18:58:04;23.50;94.50
17170;DHT22;8700;48.222;16.342;2022-09-13T19:01:27;23.50;94.90
17170;DHT22;8700;48.222;16.342;2022-09-13T19:04:48;23.50;95.10
17170;DHT22;8700;48.222;16.342;2022-09-13T19:08:13;23.40;95.40
17170;DHT22;8700;48.222;16.342;2022-09-13T19:11:36;23.40;95.80
17170;DHT22;8700;48.222;16.342;2022-09-13T19:14:58;23.20;96.20
17170;DHT22;8700;48.222;16.342;2022-09-13T19:18:19;23.20;96.50
17170;DHT22;8700;48.222;16.342;2022-09-13T19:21:41;23.10;97.20
17170;DHT22;8700;48.222;16.342;2022-09-13T19:25:05;23.00;97.80
17170;DHT22;8700;48.222;16.342;2022-09-13T19:28:27;22.80;98.90
17170;DHT22;8700;48.222;16.342;2022-09-13T19:31:49;22.80;99.90
17170;DHT22;8700;48.222;16.342;2022-09-13T19:35:11;22.60;99.90
17170;DHT22;8700;48.222;16.342;2022-09-13T19:38:33;22.60;99.90
17170;DHT22;8700;48.222;16.342;2022-09-13T19:41:57;22.50;99.90
17170;DHT22;8700;48.222;16.342;2022-09-13T19:45:19;22.40;99.90
17170;DHT22;8700;48.222;16.342;2022-09-13T19:48:43;22.30;99.90
17170;DHT22;8700;48.222;16.342;2022-09-13T19:52:05;22.00;99.90
17170;DHT22;8700;48.222;16.342;2022-09-13T19:55:26;22.10;99.90
17170;DHT22;8700;48.222;16.342;2022-09-13T19:58:49;22.00;99.90
17170;DHT22;8700;48.222;16.342;2022-09-13T20:02:11;21.90;99.90
17170;DHT22;8700;48.222;16.342;2022-09-13T20:05:33;21.80;99.90
17170;DHT22;8700;48.222;16.342;2022-09-13T20:08:57;21.70;99.90
17170;DHT22;8700;48.222;16.342;2022-09-13T20:12:19;21.60;99.90
17170;DHT22;8700;48.222;16.342;2022-09-13T20:15:44;21.40;99.90
17170;DHT22;8700;48.222;16.342;2022-09-13T20:19:07;21.40;99.90
17170;DHT22;8700;48.222;16.342;2022-09-13T20:22:29;21.30;99.90
17170;DHT22;8700;48.222;16.342;2022-09-13T20:25:50;21.20;99.90
17170;DHT22;8700;48.222;16.342;2022-09-13T20:29:15;21.10;99.90
17170;DHT22;8700;48.222;16.342;2022-09-13T20:32:37;21.00;99.90
17170;DHT22;8700;48.222;16.342;2022-09-13T20:36:02;20.90;99.90
17170;DHT22;8700;48.222;16.342;2022-09-13T20:39:24;20.80;99.90
17170;DHT22;8700;48.222;16.342;2022-09-13T20:42:46;20.80;99.90
17170;DHT22;8700;48.222;16.342;2022-09-13T20:46:10;20.80;99.90
17170;DHT22;8700;48.222;16.342;2022-09-13T20:49:33;20.70;99.90
17170;DHT22;8700;48.222;16.342;2022-09-13T20:52:54;20.80;99.90
17170;DHT22;8700;48.222;16.342;2022-09-13T20:56:17;20.90;99.90
17170;DHT22;8700;48.222;16.342;2022-09-13T20:59:39;20.90;99.90
17170;DHT22;8700;48.222;16.342;2022-09-13T21:03:00;21.00;99.90
17170;DHT22;8700;48.222;16.342;2022-09-13T21:06:25;21.10;99.90
17170;DHT22;8700;48.222;16.342;2022-09-13T21:09:47;21.20;99.90
17170;DHT22;8700;48.222;16.342;2022-09-13T21:13:07;21.30;99.90
17170;DHT22;8700;48.222;16.342;2022-09-13T21:16:31;21.30;99.90
17170;DHT22;8700;48.222;16.342;2022-09-13T21:19:52;21.30;99.90
17170;DHT22;8700;48.222;16.342;2022-09-13T21:23:15;21.20;99.90
17170;DHT22;8700;48.222;16.342;2022-09-13T21:26:38;21.00;99.90
17170;DHT22;8700;48.222;16.342;2022-09-13T21:30:01;20.90;99.90
17170;DHT22;8700;48.222;16.342;2022-09-13T21:33:24;20.90;99.90
17170;DHT22;8700;48.222;16.342;2022-09-13T21:36:46;21.00;99.90
17170;DHT22;8700;48.222;16.342;2022-09-13T21:40:10;21.00;99.90
17170;DHT22;8700;48.222;16.342;2022-09-13T21:43:31;20.90;99.90
17170;DHT22;8700;48.222;16.342;2022-09-13T21:46:53;20.90;99.90
17170;DHT22;8700;48.222;16.342;2022-09-13T21:50:15;20.80;99.90
17170;DHT22;8700;48.222;16.342;2022-09-13T21:53:37;20.70;99.90
17170;DHT22;8700;48.222;16.342;2022-09-13T21:57:00;20.60;99.90
17170;DHT22;8700;48.222;16.342;2022-09-13T22:00:22;20.60;99.90
17170;DHT22;8700;48.222;16.342;2022-09-13T22:03:44;20.50;99.90
17170;DHT22;8700;48.222;16.342;2022-09-13T22:07:06;20.50;99.90
17170;DHT22;8700;48.222;16.342;2022-09-13T22:10:27;20.40;99.90
17170;DHT22;8700;48.222;16.342;2022-09-13T22:13:50;20.40;99.90